Time;durP1;ratioP1;P1;durP2;ratioP2;P2;SDS_P1;SDS_P2;PMS_P1;PMS_P2;Temp;Humidity;BMP_temperature;BMP_pressure;BME280_temperature;BME280_humidity;BME280_pressure;Samples;Min_cycle;Max_cycle;Signal;HPM_P1;HPM_P2
2021/01/13 00:01:59;;;;;;;;;;;20.10;68.90;;;;;;5037599;28;20396;-61
2021/01/13 00:04:28;;;;;;;;;;;20.10;68.70;;;;;;5015161;28;19928;-61
2021/01/13 00:06:57;;;;;;;;;;;20.30;69.30;;;;;;5031284;28;19928;-64
2021/01/13 00:09:28;;;;;;;;;;;20.40;68.80;;;;;;5033738;28;19929;-62
2021/01/13 00:11:58;;;;;;;;;;;20.50;68.60;;;;;;5034140;28;19936;-61
2021/01/13 00:14:28;;;;;;;;;;;20.50;68.40;;;;;;5033602;28;20217;-61
2021/01/13 00:17:02;;;;;;;;;;;20.60;68.50;;;;;;5037228;28;20360;-63
2021/01/13 00:19:34;;;;;;;;;;;20.70;68.50;;;;;;5034824;28;20300;-62
2021/01/13 00:22:06;;;;;;;;;;;20.80;68.40;;;;;;5035718;28;20030;-66
2021/01/13 00:24:36;;;;;;;;;;;20.90;68.40;;;;;;5034950;28;20036;-61
2021/01/13 00:27:06;;;;;;;;;;;21.00;68.30;;;;;;5041489;28;19992;-61
2021/01/13 00:29:35;;;;;;;;;;;21.10;68.30;;;;;;5039122;28;19928;-60
2021/01/13 00:32:04;;;;;;;;;;;21.20;68.30;;;;;;5039288;28;20015;-58
2021/01/13 00:34:37;;;;;;;;;;;21.30;68.40;;;;;;5038644;28;19928;-59
2021/01/13 00:37:08;;;;;;;;;;;21.40;68.30;;;;;;5037839;28;19987;-59
2021/01/13 00:39:39;;;;;;;;;;;21.60;68.20;;;;;;5032203;28;19983;-60
2021/01/13 00:42:09;;;;;;;;;;;21.70;68.30;;;;;;5038798;28;19932;-60
2021/01/13 00:44:39;;;;;;;;;;;21.80;68.30;;;;;;5038271;28;20023;-59
2021/01/13 00:47:17;;;;;;;;;;;22.00;68.10;;;;;;5039460;28;20467;-59
2021/01/13 00:49:48;;;;;;;;;;;22.10;68.00;;;;;;5019416;28;20958;-62
2021/01/13 00:52:18;;;;;;;;;;;22.10;67.90;;;;;;5038293;28;19929;-60
2021/01/13 00:54:50;;;;;;;;;;;22.20;68.00;;;;;;5001915;28;19925;-58
2021/01/13 00:57:20;;;;;;;;;;;22.30;67.20;;;;;;5034368;28;19960;-60
2021/01/13 00:59:49;;;;;;;;;;;22.30;67.10;;;;;;5035096;28;20061;-59
2021/01/13 01:02:19;;;;;;;;;;;22.40;66.90;;;;;;5037428;28;20273;-60
2021/01/13 01:04:49;;;;;;;;;;;22.30;66.10;;;;;;5035910;28;19925;-60
2021/01/13 01:07:19;;;;;;;;;;;22.30;65.70;;;;;;5039957;28;19951;-60
2021/01/13 01:09:51;;;;;;;;;;;22.20;65.10;;;;;;5039756;28;19932;-61
2021/01/13 01:12:20;;;;;;;;;;;22.10;64.50;;;;;;5012230;28;19936;-60
2021/01/13 01:14:51;;;;;;;;;;;22.10;64.30;;;;;;5036864;28;19924;-60
2021/01/13 01:17:23;;;;;;;;;;;22.10;64.10;;;;;;5036326;28;20373;-60
2021/01/13 01:19:55;;;;;;;;;;;22.00;63.80;;;;;;5039560;28;19924;-60
2021/01/13 01:22:29;;;;;;;;;;;22.00;63.80;;;;;;5017468;28;19932;-61
2021/01/13 01:25:02;;;;;;;;;;;22.00;63.20;;;;;;5019661;28;20385;-60
2021/01/13 01:27:32;;;;;;;;;;;22.00;62.70;;;;;;5017668;28;19936;-61
2021/01/13 01:30:01;;;;;;;;;;;22.00;62.60;;;;;;5034779;28;20734;-61
2021/01/13 01:32:32;;;;;;;;;;;22.00;62.40;;;;;;5034212;28;19932;-63
2021/01/13 01:35:02;;;;;;;;;;;22.00;62.00;;;;;;5037432;28;19931;-60
2021/01/13 01:37:35;;;;;;;;;;;22.00;61.80;;;;;;5034099;28;20083;-61
2021/01/13 01:40:12;;;;;;;;;;;22.00;61.50;;;;;;5038464;28;20011;-61
2021/01/13 01:42:47;;;;;;;;;;;22.00;61.20;;;;;;5035274;28;20032;-60
2021/01/13 01:45:20;;;;;;;;;;;22.00;61.10;;;;;;5034053;28;20177;-59
2021/01/13 01:48:09;;;;;;;;;;;22.10;60.60;;;;;;5028384;28;19924;-57
2021/01/13 01:50:41;;;;;;;;;;;22.00;60.50;;;;;;5038601;28;20381;-60
2021/01/13 01:53:16;;;;;;;;;;;22.10;60.50;;;;;;5033994;28;19932;-61
2021/01/13 01:55:46;;;;;;;;;;;22.10;59.80;;;;;;5036357;28;19978;-59
2021/01/13 01:58:20;;;;;;;;;;;22.20;60.50;;;;;;5036472;28;19979;-60
2021/01/13 02:00:52;;;;;;;;;;;22.30;59.80;;;;;;5036460;28;19932;-59
2021/01/13 02:03:22;;;;;;;;;;;22.30;59.50;;;;;;5032687;28;19960;-61
2021/01/13 02:05:57;;;;;;;;;;;22.30;58.90;;;;;;5038270;28;20022;-62
2021/01/13 02:08:28;;;;;;;;;;;22.30;58.60;;;;;;5040368;28;19936;-61
2021/01/13 02:10:58;;;;;;;;;;;22.30;58.70;;;;;;5042375;28;19924;-61
2021/01/13 02:13:28;;;;;;;;;;;22.30;58.30;;;;;;5038810;28;19995;-63
2021/01/13 02:15:58;;;;;;;;;;;22.30;58.00;;;;;;5044377;28;20019;-61
2021/01/13 02:18:35;;;;;;;;;;;22.40;58.10;;;;;;5036899;28;20011;-62
2021/01/13 02:21:12;;;;;;;;;;;22.40;57.70;;;;;;5039949;28;19951;-61
2021/01/13 02:23:47;;;;;;;;;;;22.40;57.20;;;;;;5021466;28;20455;-61
2021/01/13 02:26:36;;;;;;;;;;;22.40;57.70;;;;;;5038821;28;19936;-64
2021/01/13 02:29:12;;;;;;;;;;;22.50;57.40;;;;;;5036327;28;19924;-61
2021/01/13 02:31:50;;;;;;;;;;;22.60;57.30;;;;;;5038603;28;19991;-61
2021/01/13 02:34:39;;;;;;;;;;;22.60;57.20;;;;;;5033537;28;20242;-61
2021/01/13 02:37:21;;;;;;;;;;;22.70;57.00;;;;;;5032101;28;19955;-60
2021/01/13 02:39:54;;;;;;;;;;;22.90;57.50;;;;;;5035490;28;19935;-61
2021/01/13 02:42:28;;;;;;;;;;;23.00;57.00;;;;;;5040200;28;19928;-61
2021/01/13 02:45:18;;;;;;;;;;;23.00;56.70;;;;;;5036473;28;19929;-60
2021/01/13 02:48:27;;;;;;;;;;;23.10;56.60;;;;;;5038443;28;19929;-60
2021/01/13 02:51:00;;;;;;;;;;;23.10;56.30;;;;;;4936558;28;19930;-63
2021/01/13 02:53:32;;;;;;;;;;;23.20;56.10;;;;;;4937447;28;19936;-62
2021/01/13 02:56:06;;;;;;;;;;;23.20;55.40;;;;;;4936729;28;19926;-62
2021/01/13 02:58:37;;;;;;;;;;;23.20;55.30;;;;;;4930524;28;20013;-62
2021/01/13 03:01:07;;;;;;;;;;;23.20;55.40;;;;;;4942461;28;20025;-60
2021/01/13 03:03:37;;;;;;;;;;;23.30;55.90;;;;;;4944134;28;19927;-62
2021/01/13 03:06:07;;;;;;;;;;;23.40;56.10;;;;;;4939871;28;20664;-60
2021/01/13 03:08:46;;;;;;;;;;;23.50;56.30;;;;;;4926557;28;20054;-62
2021/01/13 03:11:18;;;;;;;;;;;23.70;56.40;;;;;;4936622;28;19930;-61
2021/01/13 03:13:56;;;;;;;;;;;23.80;56.50;;;;;;4939425;28;20627;-62
2021/01/13 03:16:27;;;;;;;;;;;23.90;56.50;;;;;;4939827;28;20021;-62
2021/01/13 03:19:09;;;;;;;;;;;24.10;56.60;;;;;;4943840;28;19926;-61
2021/01/13 03:21:42;;;;;;;;;;;24.20;56.60;;;;;;4985682;28;19932;-62
2021/01/13 03:24:19;;;;;;;;;;;24.30;56.60;;;;;;5038227;28;20381;-62
2021/01/13 03:26:48;;;;;;;;;;;24.30;56.60;;;;;;5029298;28;19929;-63
2021/01/13 03:29:22;;;;;;;;;;;24.40;56.70;;;;;;5037258;28;20018;-64
2021/01/13 03:32:08;;;;;;;;;;;24.50;56.70;;;;;;5036606;28;19929;-61
2021/01/13 03:34:40;;;;;;;;;;;24.60;56.80;;;;;;5037283;28;20037;-61
2021/01/13 03:37:19;;;;;;;;;;;24.50;55.90;;;;;;5035336;28;19960;-61
2021/01/13 03:39:57;;;;;;;;;;;24.50;55.60;;;;;;5037359;28;20416;-61
2021/01/13 03:42:34;;;;;;;;;;;24.50;55.40;;;;;;5030482;28;19924;-62
2021/01/13 03:45:06;;;;;;;;;;;24.40;55.30;;;;;;5036817;28;19924;-64
2021/01/13 03:47:43;;;;;;;;;;;24.40;55.30;;;;;;5036113;28;20423;-65
2021/01/13 03:50:20;;;;;;;;;;;24.40;55.20;;;;;;5040383;28;19924;-67
2021/01/13 03:53:01;;;;;;;;;;;24.30;55.30;;;;;;5036138;28;19935;-67
2021/01/13 03:55:34;;;;;;;;;;;24.30;55.40;;;;;;5039134;28;20022;-69
2021/01/13 03:58:09;;;;;;;;;;;24.30;55.50;;;;;;5037700;28;19928;-70
2021/01/13 04:00:57;;;;;;;;;;;24.40;55.70;;;;;;5017776;28;19929;-66
2021/01/13 04:03:28;;;;;;;;;;;24.40;55.70;;;;;;5038020;28;19924;-63
2021/01/13 04:06:02;;;;;;;;;;;24.40;56.00;;;;;;5041374;28;19924;-68
2021/01/13 04:08:37;;;;;;;;;;;24.40;56.10;;;;;;5024452;28;19931;-68
2021/01/13 04:11:12;;;;;;;;;;;24.50;56.20;;;;;;5020615;28;19971;-64
2021/01/13 04:13:43;;;;;;;;;;;24.50;56.40;;;;;;5034252;28;20024;-64
2021/01/13 04:16:17;;;;;;;;;;;24.50;56.70;;;;;;5031338;28;20399;-63
2021/01/13 04:18:52;;;;;;;;;;;24.60;56.80;;;;;;5033248;28;19928;-67
2021/01/13 04:21:22;;;;;;;;;;;24.70;57.00;;;;;;5037246;28;19929;-67
2021/01/13 04:23:56;;;;;;;;;;;24.70;57.00;;;;;;5034711;28;19928;-68
2021/01/13 04:26:27;;;;;;;;;;;24.70;56.90;;;;;;5039095;28;20388;-62
2021/01/13 04:28:57;;;;;;;;;;;24.70;56.90;;;;;;5036149;28;20272;-66
2021/01/13 04:31:27;;;;;;;;;;;24.70;57.00;;;;;;5037974;28;20015;-67
2021/01/13 04:33:56;;;;;;;;;;;24.60;57.00;;;;;;5034635;28;20364;-68
2021/01/13 04:36:26;;;;;;;;;;;24.70;57.20;;;;;;5040311;28;19936;-71
2021/01/13 04:39:01;;;;;;;;;;;24.70;57.10;;;;;;5020927;28;20027;-65
2021/01/13 04:41:45;;;;;;;;;;;24.70;57.30;;;;;;5021008;28;19924;-64
2021/01/13 04:44:19;;;;;;;;;;;24.70;57.30;;;;;;5035682;28;19925;-64
2021/01/13 04:46:49;;;;;;;;;;;24.60;57.40;;;;;;5038749;28;20015;-66
2021/01/13 04:49:22;;;;;;;;;;;24.70;57.70;;;;;;5031252;28;20051;-64
2021/01/13 04:51:58;;;;;;;;;;;24.70;57.70;;;;;;5020138;28;20432;-64
2021/01/13 04:54:31;;;;;;;;;;;24.70;57.70;;;;;;5035772;28;19935;-61
2021/01/13 04:57:17;;;;;;;;;;;24.70;58.70;;;;;;5037617;28;19967;-62
2021/01/13 05:00:07;;;;;;;;;;;24.70;57.30;;;;;;5034067;28;20022;-62
2021/01/13 05:02:43;;;;;;;;;;;24.60;56.70;;;;;;5037581;28;19935;-62
2021/01/13 05:05:21;;;;;;;;;;;24.50;56.50;;;;;;5029540;28;19952;-63
2021/01/13 05:08:11;;;;;;;;;;;24.40;55.90;;;;;;5031512;28;19982;-61
2021/01/13 05:10:42;;;;;;;;;;;24.40;55.70;;;;;;5007529;28;19925;-64
2021/01/13 05:13:15;;;;;;;;;;;24.30;55.30;;;;;;5036479;28;20063;-61
2021/01/13 05:16:09;;;;;;;;;;;24.30;55.30;;;;;;5032078;28;20015;-62
2021/01/13 05:18:50;;;;;;;;;;;24.20;55.20;;;;;;5030917;28;19933;-63
2021/01/13 05:21:25;;;;;;;;;;;24.30;54.90;;;;;;5029442;28;19928;-63
2021/01/13 05:23:56;;;;;;;;;;;24.20;54.60;;;;;;5032248;28;20045;-63
2021/01/13 05:26:30;;;;;;;;;;;24.20;54.20;;;;;;5031138;28;19924;-61
2021/01/13 05:29:05;;;;;;;;;;;24.20;54.00;;;;;;5036625;28;20023;-63
2021/01/13 05:31:36;;;;;;;;;;;24.20;53.80;;;;;;5033694;28;19933;-62
2021/01/13 05:34:05;;;;;;;;;;;24.20;53.40;;;;;;5035175;28;19931;-63
2021/01/13 05:36:41;;;;;;;;;;;24.20;53.40;;;;;;5034769;28;19991;-62
2021/01/13 05:39:14;;;;;;;;;;;24.20;53.10;;;;;;5032585;28;19932;-62
2021/01/13 05:41:44;;;;;;;;;;;24.20;52.90;;;;;;5017925;28;20376;-60
2021/01/13 05:44:13;;;;;;;;;;;24.10;52.40;;;;;;5040989;28;19929;-62
2021/01/13 05:46:43;;;;;;;;;;;24.10;52.50;;;;;;5036426;28;19928;-65
2021/01/13 05:49:16;;;;;;;;;;;24.10;52.40;;;;;;5040862;28;19935;-67
2021/01/13 05:51:47;;;;;;;;;;;24.10;52.30;;;;;;5036011;28;19928;-63
2021/01/13 05:54:19;;;;;;;;;;;24.10;52.10;;;;;;5040264;28;19997;-64
2021/01/13 05:56:55;;;;;;;;;;;24.10;51.90;;;;;;5033682;28;20380;-68
2021/01/13 05:59:29;;;;;;;;;;;24.10;51.90;;;;;;5040201;28;20009;-65
2021/01/13 06:02:03;;;;;;;;;;;24.10;51.90;;;;;;5039140;28;19987;-60
2021/01/13 06:04:36;;;;;;;;;;;24.10;51.80;;;;;;5040103;28;19935;-70
2021/01/13 06:07:14;;;;;;;;;;;24.10;51.60;;;;;;5037447;28;19925;-64
2021/01/13 06:09:54;;;;;;;;;;;24.10;51.40;;;;;;5022338;28;20410;-65
2021/01/13 06:12:25;;;;;;;;;;;24.10;51.30;;;;;;5019371;28;19941;-65
2021/01/13 06:14:56;;;;;;;;;;;24.10;51.30;;;;;;5040047;28;19925;-67
2021/01/13 06:17:30;;;;;;;;;;;24.10;51.10;;;;;;5037718;28;19939;-70
2021/01/13 06:20:01;;;;;;;;;;;24.10;51.10;;;;;;5041130;28;19955;-62
2021/01/13 06:22:33;;;;;;;;;;;24.10;51.00;;;;;;5019274;28;20339;-62
2021/01/13 06:25:07;;;;;;;;;;;24.10;50.80;;;;;;5038573;28;19924;-63
2021/01/13 06:27:45;;;;;;;;;;;24.20;50.80;;;;;;5036245;28;19932;-68
2021/01/13 06:30:21;;;;;;;;;;;24.20;50.60;;;;;;5036509;28;20267;-62
2021/01/13 06:32:54;;;;;;;;;;;24.10;50.30;;;;;;5037607;28;20015;-68
2021/01/13 06:35:45;;;;;;;;;;;24.10;50.30;;;;;;5043167;28;20396;-65
2021/01/13 06:38:19;;;;;;;;;;;24.10;50.30;;;;;;5022598;28;20440;-63
2021/01/13 06:41:03;;;;;;;;;;;24.10;50.00;;;;;;5041337;28;19929;-63
2021/01/13 06:43:33;;;;;;;;;;;24.00;50.10;;;;;;5038260;28;19930;-65
2021/01/13 06:46:17;;;;;;;;;;;24.10;50.00;;;;;;5021542;28;19980;-66
2021/01/13 06:48:50;;;;;;;;;;;24.20;50.10;;;;;;5035754;28;20132;-68
2021/01/13 06:51:23;;;;;;;;;;;24.20;50.20;;;;;;5042117;28;19931;-65
2021/01/13 06:53:59;;;;;;;;;;;24.20;50.00;;;;;;5040228;28;19931;-66
2021/01/13 06:56:29;;;;;;;;;;;24.20;49.90;;;;;;5039677;28;19936;-67
2021/01/13 06:59:02;;;;;;;;;;;24.10;49.80;;;;;;5035395;28;20008;-68
2021/01/13 07:01:36;;;;;;;;;;;24.10;49.70;;;;;;5037224;28;19935;-67
2021/01/13 07:04:08;;;;;;;;;;;24.20;49.80;;;;;;5031595;28;20375;-66
2021/01/13 07:06:38;;;;;;;;;;;24.20;49.50;;;;;;5038985;28;19924;-64
2021/01/13 07:09:10;;;;;;;;;;;24.20;49.90;;;;;;5034758;28;20537;-65
2021/01/13 07:11:40;;;;;;;;;;;24.20;50.20;;;;;;5040351;28;19924;-63
2021/01/13 07:14:10;;;;;;;;;;;24.30;50.30;;;;;;5036793;28;19932;-64
2021/01/13 07:16:42;;;;;;;;;;;24.40;50.60;;;;;;5023313;28;19928;-64
2021/01/13 07:19:16;;;;;;;;;;;24.50;51.00;;;;;;5034314;28;19932;-64
2021/01/13 07:21:46;;;;;;;;;;;24.50;50.90;;;;;;5036957;28;20258;-64
2021/01/13 07:24:20;;;;;;;;;;;24.60;51.20;;;;;;5036828;28;19929;-64
2021/01/13 07:26:50;;;;;;;;;;;24.60;51.40;;;;;;5035270;28;19931;-63
2021/01/13 07:29:20;;;;;;;;;;;24.60;51.50;;;;;;5038994;28;19924;-62
2021/01/13 07:31:50;;;;;;;;;;;24.60;51.50;;;;;;5034944;28;19925;-63
2021/01/13 07:34:22;;;;;;;;;;;24.60;51.40;;;;;;5035689;28;19925;-64
2021/01/13 07:36:57;;;;;;;;;;;24.60;51.60;;;;;;5029352;28;19972;-62
2021/01/13 07:39:46;;;;;;;;;;;24.50;51.80;;;;;;5035498;28;19925;-62
2021/01/13 07:42:33;;;;;;;;;;;24.50;51.80;;;;;;5031967;28;19921;-63
2021/01/13 07:45:04;;;;;;;;;;;24.50;51.90;;;;;;5020012;28;20019;-63
2021/01/13 07:48:06;;;;;;;;;;;24.50;52.20;;;;;;5035302;28;19958;-62
2021/01/13 07:50:41;;;;;;;;;;;24.60;52.50;;;;;;5034569;28;19931;-63
2021/01/13 07:53:32;;;;;;;;;;;24.60;52.70;;;;;;5032010;28;19925;-63
2021/01/13 07:56:04;;;;;;;;;;;24.60;52.80;;;;;;5032899;28;19936;-62
2021/01/13 07:58:37;;;;;;;;;;;24.60;53.00;;;;;;5036615;28;19967;-63
2021/01/13 08:01:14;;;;;;;;;;;24.70;53.20;;;;;;5033494;28;19929;-63
2021/01/13 08:04:04;;;;;;;;;;;24.70;53.30;;;;;;5034623;28;19924;-63
2021/01/13 08:06:35;;;;;;;;;;;24.60;53.40;;;;;;5034329;28;19931;-63
2021/01/13 08:09:08;;;;;;;;;;;24.70;53.60;;;;;;5033965;28;19929;-63
2021/01/13 08:11:40;;;;;;;;;;;24.70;53.60;;;;;;5031900;28;19929;-63
2021/01/13 08:14:31;;;;;;;;;;;24.70;53.90;;;;;;5036083;28;19929;-63
2021/01/13 08:17:17;;;;;;;;;;;24.70;54.10;;;;;;5033253;28;20635;-63
2021/01/13 08:20:04;;;;;;;;;;;24.70;54.10;;;;;;5038253;28;19935;-63
2021/01/13 08:22:35;;;;;;;;;;;24.70;54.20;;;;;;5031816;28;19932;-62
2021/01/13 08:25:18;;;;;;;;;;;24.70;54.30;;;;;;5032682;28;19928;-62
2021/01/13 08:27:55;;;;;;;;;;;24.70;54.60;;;;;;5029415;28;20349;-62
2021/01/13 08:30:26;;;;;;;;;;;24.60;54.60;;;;;;5035284;28;20038;-61
2021/01/13 08:33:00;;;;;;;;;;;24.70;54.90;;;;;;5033124;28;19948;-62
2021/01/13 08:35:38;;;;;;;;;;;24.70;55.00;;;;;;5036940;28;19929;-62
2021/01/13 08:38:12;;;;;;;;;;;24.70;55.20;;;;;;5032869;28;19929;-63
2021/01/13 08:40:43;;;;;;;;;;;24.70;55.40;;;;;;5037335;28;19932;-62
2021/01/13 08:43:17;;;;;;;;;;;24.80;55.90;;;;;;5033462;28;19931;-63
2021/01/13 08:45:48;;;;;;;;;;;24.80;56.20;;;;;;5038153;28;19930;-63
2021/01/13 08:48:21;;;;;;;;;;;24.90;56.40;;;;;;5018795;28;20012;-62
2021/01/13 08:51:05;;;;;;;;;;;24.90;56.60;;;;;;5039709;28;20019;-62
2021/01/13 08:53:36;;;;;;;;;;;24.90;56.80;;;;;;5038339;28;19928;-62
2021/01/13 08:56:07;;;;;;;;;;;24.90;57.00;;;;;;5020037;28;19932;-62
2021/01/13 08:58:38;;;;;;;;;;;24.90;57.10;;;;;;5022952;28;19925;-61
2021/01/13 09:01:36;;;;;;;;;;;24.90;57.30;;;;;;5025624;28;19929;-62
2021/01/13 09:04:06;;;;;;;;;;;25.00;57.60;;;;;;5020496;28;20297;-62
2021/01/13 09:06:39;;;;;;;;;;;25.00;57.70;;;;;;5024425;28;20387;-62
2021/01/13 09:09:12;;;;;;;;;;;25.00;57.90;;;;;;5022331;28;19929;-62
2021/01/13 09:11:44;;;;;;;;;;;25.00;58.00;;;;;;5024552;28;19925;-62
2021/01/13 09:14:27;;;;;;;;;;;25.00;58.20;;;;;;5022086;28;19932;-62
2021/01/13 09:16:58;;;;;;;;;;;24.90;58.20;;;;;;5021426;28;19933;-61
2021/01/13 09:19:32;;;;;;;;;;;24.90;58.30;;;;;;5024286;28;19929;-62
2021/01/13 09:22:10;;;;;;;;;;;24.90;58.50;;;;;;5013622;28;20028;-62
2021/01/13 09:24:45;;;;;;;;;;;24.90;58.60;;;;;;5015152;28;19929;-63
2021/01/13 09:27:15;;;;;;;;;;;24.80;58.90;;;;;;5016580;28;19931;-61
2021/01/13 09:29:55;;;;;;;;;;;24.60;58.40;;;;;;5032704;28;19931;-65
2021/01/13 09:32:25;;;;;;;;;;;24.70;59.30;;;;;;5038250;28;19964;-60
2021/01/13 09:34:55;;;;;;;;;;;24.70;59.40;;;;;;5038205;28;19991;-63
2021/01/13 09:37:26;;;;;;;;;;;24.80;59.50;;;;;;5036576;28;20308;-61
2021/01/13 09:40:02;;;;;;;;;;;24.70;59.40;;;;;;5034052;28;19925;-60
2021/01/13 09:42:39;;;;;;;;;;;24.70;59.60;;;;;;5038766;28;19925;-60
2021/01/13 09:45:10;;;;;;;;;;;24.70;59.30;;;;;;5037847;28;20454;-62
2021/01/13 09:47:40;;;;;;;;;;;24.80;59.40;;;;;;5042088;28;20337;-63
2021/01/13 09:50:15;;;;;;;;;;;24.80;59.30;;;;;;5036873;28;19932;-60
2021/01/13 09:52:47;;;;;;;;;;;24.70;60.00;;;;;;5038716;28;19925;-64
2021/01/13 09:55:17;;;;;;;;;;;24.80;60.20;;;;;;5039818;28;19924;-61
2021/01/13 09:57:47;;;;;;;;;;;24.80;60.20;;;;;;5022336;28;20002;-65
2021/01/13 10:00:17;;;;;;;;;;;24.80;60.40;;;;;;5039421;28;19924;-62
2021/01/13 10:02:49;;;;;;;;;;;24.80;60.30;;;;;;5021454;28;19924;-61
2021/01/13 10:05:18;;;;;;;;;;;24.70;59.70;;;;;;5022156;28;20388;-63
2021/01/13 10:07:51;;;;;;;;;;;24.70;60.40;;;;;;5032557;28;20380;-63
2021/01/13 10:10:24;;;;;;;;;;;24.70;60.50;;;;;;5039992;28;20476;-65
2021/01/13 10:12:54;;;;;;;;;;;24.70;60.10;;;;;;5038427;28;19935;-61
2021/01/13 10:15:26;;;;;;;;;;;24.60;60.10;;;;;;5041369;28;19928;-62
2021/01/13 10:18:04;;;;;;;;;;;24.60;60.30;;;;;;5039127;28;20031;-63
2021/01/13 10:20:35;;;;;;;;;;;24.60;60.50;;;;;;5041749;28;19929;-63
2021/01/13 10:23:07;;;;;;;;;;;24.60;60.50;;;;;;5035916;28;19925;-62
2021/01/13 10:25:43;;;;;;;;;;;24.60;60.50;;;;;;5040473;28;19971;-61
2021/01/13 10:28:13;;;;;;;;;;;24.50;60.50;;;;;;5040792;28;19925;-61
2021/01/13 10:30:42;;;;;;;;;;;24.40;60.50;;;;;;5045967;28;19924;-61
2021/01/13 10:33:12;;;;;;;;;;;24.40;61.00;;;;;;5041354;28;19929;-60
2021/01/13 10:35:43;;;;;;;;;;;24.40;61.20;;;;;;5042717;28;20313;-64
2021/01/13 10:38:18;;;;;;;;;;;24.40;61.00;;;;;;5040748;28;19931;-61
2021/01/13 10:40:54;;;;;;;;;;;24.30;60.70;;;;;;5042519;28;19928;-61
2021/01/13 10:43:26;;;;;;;;;;;24.30;61.00;;;;;;5022772;28;19924;-61
2021/01/13 10:46:02;;;;;;;;;;;24.20;61.20;;;;;;5026310;28;19929;-60
2021/01/13 10:48:37;;;;;;;;;;;24.20;61.20;;;;;;5045033;28;19925;-62
2021/01/13 10:51:12;;;;;;;;;;;24.20;61.40;;;;;;5044216;28;19998;-61
2021/01/13 10:53:48;;;;;;;;;;;24.10;61.50;;;;;;5042024;28;20446;-61
2021/01/13 10:56:23;;;;;;;;;;;24.00;61.50;;;;;;5013560;28;19936;-61
2021/01/13 10:58:58;;;;;;;;;;;23.90;62.10;;;;;;5040076;28;19929;-61
2021/01/13 11:01:29;;;;;;;;;;;23.90;62.60;;;;;;5027643;28;19952;-59
2021/01/13 11:03:59;;;;;;;;;;;23.80;62.90;;;;;;5040510;28;19960;-61
2021/01/13 11:06:29;;;;;;;;;;;23.90;63.10;;;;;;5040775;28;20191;-62
2021/01/13 11:09:01;;;;;;;;;;;24.00;63.00;;;;;;5042077;28;19964;-65
2021/01/13 11:11:31;;;;;;;;;;;23.80;62.70;;;;;;5022818;28;20285;-61
2021/01/13 11:14:02;;;;;;;;;;;23.80;63.00;;;;;;5040010;28;19925;-60
2021/01/13 11:16:34;;;;;;;;;;;23.70;63.40;;;;;;5038246;28;19924;-61
2021/01/13 11:19:06;;;;;;;;;;;23.70;63.50;;;;;;5023057;28;20237;-61
2021/01/13 11:21:41;;;;;;;;;;;23.80;63.30;;;;;;5040066;28;20365;-61
2021/01/13 11:24:13;;;;;;;;;;;23.80;63.10;;;;;;5037871;28;19928;-60
2021/01/13 11:26:45;;;;;;;;;;;23.60;63.10;;;;;;5044562;28;19925;-60
2021/01/13 11:29:14;;;;;;;;;;;23.50;63.60;;;;;;5036753;28;20064;-60
2021/01/13 11:31:45;;;;;;;;;;;23.60;63.90;;;;;;5039388;28;20113;-60
2021/01/13 11:34:21;;;;;;;;;;;23.60;63.70;;;;;;5041473;28;19921;-60
2021/01/13 11:37:02;;;;;;;;;;;23.60;63.50;;;;;;5045259;28;20399;-61
2021/01/13 11:39:43;;;;;;;;;;;23.30;63.60;;;;;;5021402;28;19925;-59
2021/01/13 11:42:20;;;;;;;;;;;23.30;64.20;;;;;;5042633;28;20407;-59
2021/01/13 11:45:01;;;;;;;;;;;23.30;64.50;;;;;;5037676;28;19928;-56
2021/01/13 11:47:35;;;;;;;;;;;23.40;64.50;;;;;;5039515;28;20261;-60
2021/01/13 11:50:14;;;;;;;;;;;23.40;64.20;;;;;;5038527;28;20025;-60
2021/01/13 11:52:53;;;;;;;;;;;23.20;64.60;;;;;;5026378;28;20316;-61
2021/01/13 11:55:31;;;;;;;;;;;23.10;64.60;;;;;;5039456;28;19935;-59
2021/01/13 11:58:01;;;;;;;;;;;23.00;65.00;;;;;;5026960;28;20456;-60
2021/01/13 12:00:30;;;;;;;;;;;22.90;65.10;;;;;;5037721;28;19929;-60
2021/01/13 12:03:00;;;;;;;;;;;22.90;65.50;;;;;;5038372;28;19925;-61
2021/01/13 12:05:32;;;;;;;;;;;22.90;65.40;;;;;;5031608;28;19933;-60
2021/01/13 12:08:04;;;;;;;;;;;23.00;65.80;;;;;;5023840;28;19937;-60
2021/01/13 12:10:41;;;;;;;;;;;22.90;66.00;;;;;;5041740;28;20384;-61
2021/01/13 12:13:11;;;;;;;;;;;22.90;65.80;;;;;;5041837;28;20019;-60
2021/01/13 12:15:56;;;;;;;;;;;22.60;65.80;;;;;;5025946;28;20508;-61
2021/01/13 12:18:28;;;;;;;;;;;22.40;65.80;;;;;;5038445;28;19924;-61
2021/01/13 12:21:00;;;;;;;;;;;22.30;67.40;;;;;;5037952;28;19929;-61
2021/01/13 12:23:36;;;;;;;;;;;22.30;67.90;;;;;;5022972;28;19929;-61
2021/01/13 12:26:24;;;;;;;;;;;22.30;68.00;;;;;;5040845;28;19924;-60
2021/01/13 12:28:54;;;;;;;;;;;22.30;68.00;;;;;;5041972;28;20380;-60
2021/01/13 12:31:27;;;;;;;;;;;22.40;68.00;;;;;;5024596;28;20109;-61
2021/01/13 12:33:59;;;;;;;;;;;22.30;68.00;;;;;;5042467;28;19936;-62
2021/01/13 12:36:42;;;;;;;;;;;22.40;68.20;;;;;;5037778;28;20008;-61
2021/01/13 12:39:25;;;;;;;;;;;22.60;68.60;;;;;;5039569;28;19928;-64
2021/01/13 12:42:01;;;;;;;;;;;22.80;68.70;;;;;;5035998;28;19956;-61
2021/01/13 12:44:33;;;;;;;;;;;22.70;68.90;;;;;;5002482;28;20032;-63
2021/01/13 12:47:03;;;;;;;;;;;22.90;69.00;;;;;;5034614;28;19930;-61
2021/01/13 12:49:34;;;;;;;;;;;22.90;68.80;;;;;;5036917;28;19932;-62
2021/01/13 12:52:05;;;;;;;;;;;22.90;68.50;;;;;;5034016;28;20071;-63
2021/01/13 12:54:35;;;;;;;;;;;22.80;68.60;;;;;;5012603;28;19928;-61
2021/01/13 12:57:06;;;;;;;;;;;22.70;68.70;;;;;;5034196;28;20374;-63
2021/01/13 12:59:36;;;;;;;;;;;22.80;68.60;;;;;;5033042;28;19924;-62
2021/01/13 13:02:06;;;;;;;;;;;22.80;68.50;;;;;;5036074;28;20425;-62
2021/01/13 13:04:35;;;;;;;;;;;22.80;68.10;;;;;;5032424;28;19924;-62
2021/01/13 13:07:05;;;;;;;;;;;22.70;67.60;;;;;;5036132;28;20212;-62
2021/01/13 13:09:35;;;;;;;;;;;22.60;67.90;;;;;;5028693;28;19929;-62
2021/01/13 13:12:05;;;;;;;;;;;22.50;67.90;;;;;;5030275;28;19931;-63
2021/01/13 13:14:34;;;;;;;;;;;22.50;67.50;;;;;;5032943;28;19928;-63
2021/01/13 13:17:04;;;;;;;;;;;22.50;67.00;;;;;;5035762;28;20408;-62
2021/01/13 13:19:35;;;;;;;;;;;22.50;66.40;;;;;;5031900;28;19928;-61
2021/01/13 13:22:05;;;;;;;;;;;22.40;66.40;;;;;;5018435;28;20353;-63
2021/01/13 13:24:36;;;;;;;;;;;22.40;66.20;;;;;;5031076;28;20012;-62
2021/01/13 13:27:08;;;;;;;;;;;22.50;65.20;;;;;;5032300;28;20380;-63
2021/01/13 13:29:37;;;;;;;;;;;22.30;63.70;;;;;;5032785;28;19924;-63
2021/01/13 13:32:06;;;;;;;;;;;22.20;64.50;;;;;;5036733;28;19924;-64
2021/01/13 13:34:36;;;;;;;;;;;22.30;64.10;;;;;;5033503;28;19931;-63
2021/01/13 13:37:07;;;;;;;;;;;22.20;63.60;;;;;;5017011;28;19929;-63
2021/01/13 13:39:38;;;;;;;;;;;22.10;63.10;;;;;;5034658;28;20762;-64
2021/01/13 13:42:10;;;;;;;;;;;22.10;63.20;;;;;;5017530;28;19931;-64
2021/01/13 13:44:39;;;;;;;;;;;22.00;62.80;;;;;;5027670;28;19929;-65
2021/01/13 13:47:11;;;;;;;;;;;22.00;62.40;;;;;;5017021;28;19933;-66
2021/01/13 13:49:45;;;;;;;;;;;21.90;62.30;;;;;;5033103;28;19935;-62
2021/01/13 13:52:17;;;;;;;;;;;21.80;62.50;;;;;;5019101;28;19955;-63
2021/01/13 13:54:59;;;;;;;;;;;21.80;62.50;;;;;;5033232;28;19928;-62
2021/01/13 13:57:28;;;;;;;;;;;21.40;62.10;;;;;;5035433;28;19940;-64
2021/01/13 13:59:57;;;;;;;;;;;21.30;63.60;;;;;;5028917;28;20466;-63
2021/01/13 14:02:26;;;;;;;;;;;21.50;63.90;;;;;;5033849;28;20467;-63
2021/01/13 14:04:55;;;;;;;;;;;21.60;63.90;;;;;;5040192;28;20267;-64
2021/01/13 14:07:27;;;;;;;;;;;21.80;63.70;;;;;;5020284;28;20286;-63
2021/01/13 14:09:58;;;;;;;;;;;21.70;63.70;;;;;;5040842;28;20419;-65
2021/01/13 14:12:27;;;;;;;;;;;21.50;63.10;;;;;;5022776;28;19972;-62
2021/01/13 14:14:58;;;;;;;;;;;21.40;64.30;;;;;;5041364;28;19929;-62
2021/01/13 14:17:32;;;;;;;;;;;21.60;64.80;;;;;;5032663;28;19932;-64
2021/01/13 14:20:04;;;;;;;;;;;21.80;64.70;;;;;;5035910;28;19929;-62
2021/01/13 14:22:36;;;;;;;;;;;21.80;64.10;;;;;;5027462;28;19925;-63
2021/01/13 14:25:08;;;;;;;;;;;22.00;63.70;;;;;;5036633;28;20400;-62
2021/01/13 14:27:39;;;;;;;;;;;21.70;63.30;;;;;;5030954;28;19935;-63
2021/01/13 14:30:10;;;;;;;;;;;21.60;63.40;;;;;;5026762;28;20440;-62
2021/01/13 14:32:40;;;;;;;;;;;21.80;64.20;;;;;;5016894;28;19932;-62
2021/01/13 14:35:10;;;;;;;;;;;21.40;64.00;;;;;;5022270;28;19939;-62
2021/01/13 14:37:41;;;;;;;;;;;21.20;63.30;;;;;;5010385;28;19968;-61
2021/01/13 14:40:12;;;;;;;;;;;21.30;64.80;;;;;;5029831;28;19925;-62
2021/01/13 14:42:44;;;;;;;;;;;21.40;64.40;;;;;;5030797;28;19960;-63
2021/01/13 14:45:13;;;;;;;;;;;21.60;63.90;;;;;;5028610;28;19925;-63
2021/01/13 14:47:45;;;;;;;;;;;21.70;63.00;;;;;;5038649;28;19924;-60
2021/01/13 14:50:17;;;;;;;;;;;21.60;62.90;;;;;;5035030;28;19925;-61
2021/01/13 14:52:50;;;;;;;;;;;21.60;62.90;;;;;;5033087;28;20064;-62
2021/01/13 14:55:21;;;;;;;;;;;21.60;62.60;;;;;;5029319;28;19925;-62